Time;durP1;ratioP1;P1;durP2;ratioP2;P2;SDS_P1;SDS_P2;PMS_P1;PMS_P2;Temp;Humidity;BMP_temperature;BMP_pressure;BME280_temperature;BME280_humidity;BME280_pressure;Samples;Min_cycle;Max_cycle;Signal;HPM_P1;HPM_P2
2023/04/15 00:02:18;;;;;;;;;;;;;;;6.14;91.90;100770.16;10415066;28;19983;-67
2023/04/15 00:07:21;;;;;;;;;;;;;;;6.09;88.55;100762.53;10438532;28;19976;-67
2023/04/15 00:12:23;;;;;;;;;;;;;;;6.18;90.39;100769.13;10456419;28;19925;-67
2023/04/15 00:17:25;;;;;;;;;;;;;;;5.98;93.75;100759.50;10435828;22;19983;-60
2023/04/15 00:22:28;;;;;;;;;;;;;;;5.76;92.96;100757.69;10415810;28;20295;-60
2023/04/15 00:27:30;;;;;;;;;;;;;;;5.81;94.45;100760.13;10381005;28;20524;-60
2023/04/15 00:32:33;;;;;;;;;;;;;;;5.76;94.38;100759.44;10374739;28;19933;-60
2023/04/15 00:37:35;;;;;;;;;;;;;;;5.75;94.60;100756.00;10375149;28;19948;-60
2023/04/15 00:42:38;;;;;;;;;;;;;;;5.64;96.99;100763.34;10375079;28;19929;-60
2023/04/15 00:47:41;;;;;;;;;;;;;;;5.64;98.67;100760.75;10378168;28;19929;-60
2023/04/15 00:52:43;;;;;;;;;;;;;;;5.63;98.53;100766.00;10374081;28;20016;-60
2023/04/15 00:57:45;;;;;;;;;;;;;;;5.57;100.00;100767.09;10374158;28;19933;-60
2023/04/15 01:02:47;;;;;;;;;;;;;;;5.69;98.71;100766.63;10372778;28;19925;-60
2023/04/15 01:07:50;;;;;;;;;;;;;;;5.39;100.00;100772.03;10375142;28;19932;-60
2023/04/15 01:12:52;;;;;;;;;;;;;;;5.37;96.76;100779.03;10373564;28;19980;-60
2023/04/15 01:17:54;;;;;;;;;;;;;;;5.30;100.00;100779.34;10387071;28;20327;-60
2023/04/15 01:22:56;;;;;;;;;;;;;;;5.28;99.51;100778.53;10422465;28;19925;-60
2023/04/15 01:27:59;;;;;;;;;;;;;;;5.29;98.21;100773.28;10420628;28;19929;-60
2023/04/15 01:33:01;;;;;;;;;;;;;;;5.38;99.89;100772.97;10411446;28;19980;-60
2023/04/15 01:38:05;;;;;;;;;;;;;;;5.27;100.00;100774.25;10380890;28;20292;-60
2023/04/15 01:43:08;;;;;;;;;;;;;;;5.09;100.00;100780.94;10380701;28;19948;-60
2023/04/15 01:48:11;;;;;;;;;;;;;;;5.37;99.42;100778.22;10416301;28;20416;-60
2023/04/15 01:53:14;;;;;;;;;;;;;;;4.93;100.00;100783.22;10420707;28;19925;-60
2023/04/15 01:58:16;;;;;;;;;;;;;;;5.18;100.00;100773.66;10380201;28;20336;-60
2023/04/15 02:03:19;;;;;;;;;;;;;;;5.27;100.00;100777.69;10378267;28;19926;-61
2023/04/15 02:08:21;;;;;;;;;;;;;;;5.21;98.49;100777.88;10379793;28;19929;-60
2023/04/15 02:13:23;;;;;;;;;;;;;;;5.07;99.31;100786.16;10380175;28;19952;-60
2023/04/15 02:18:26;;;;;;;;;;;;;;;5.31;100.00;100781.88;10379429;28;19980;-60
2023/04/15 02:23:28;;;;;;;;;;;;;;;5.29;98.66;100782.81;10379770;28;19929;-60
2023/04/15 02:28:30;;;;;;;;;;;;;;;4.90;100.00;100786.75;10417931;28;19925;-60
2023/04/15 02:33:32;;;;;;;;;;;;;;;4.76;100.00;100791.56;10419065;28;19929;-64
2023/04/15 02:38:35;;;;;;;;;;;;;;;4.69;100.00;100805.63;10419480;28;20319;-64
2023/04/15 02:43:38;;;;;;;;;;;;;;;4.72;100.00;100808.13;10397482;28;19925;-64
2023/04/15 02:48:41;;;;;;;;;;;;;;;4.63;100.00;100809.28;10420025;28;19936;-64
2023/04/15 02:53:43;;;;;;;;;;;;;;;4.71;100.00;100820.25;10418046;28;19932;-64
2023/04/15 02:58:45;;;;;;;;;;;;;;;4.72;100.00;100826.28;10418674;28;19925;-64
2023/04/15 03:03:48;;;;;;;;;;;;;;;4.75;100.00;100824.41;10388600;28;19934;-64
2023/04/15 03:08:50;;;;;;;;;;;;;;;4.98;100.00;100828.00;10418960;28;19932;-64
2023/04/15 03:13:52;;;;;;;;;;;;;;;4.94;98.88;100837.66;10400498;28;19979;-64
2023/04/15 03:18:55;;;;;;;;;;;;;;;5.15;100.00;100836.06;10418161;28;19979;-64
2023/04/15 03:23:57;;;;;;;;;;;;;;;4.99;100.00;100829.69;10416179;28;20388;-64
2023/04/15 03:28:59;;;;;;;;;;;;;;;4.64;100.00;100835.16;10388495;28;19929;-64
2023/04/15 03:34:02;;;;;;;;;;;;;;;4.49;100.00;100850.34;10375544;28;19925;-64
2023/04/15 03:39:04;;;;;;;;;;;;;;;4.62;100.00;100847.34;10376423;28;19926;-64
2023/04/15 03:44:06;;;;;;;;;;;;;;;4.47;100.00;100855.56;10411714;28;19976;-64
2023/04/15 03:49:10;;;;;;;;;;;;;;;4.68;100.00;100855.81;10376602;28;19972;-64
2023/04/15 03:54:14;;;;;;;;;;;;;;;4.36;100.00;100853.31;10375784;28;20296;-63
2023/04/15 03:59:16;;;;;;;;;;;;;;;4.58;100.00;100858.69;10387289;28;19925;-64
2023/04/15 04:04:18;;;;;;;;;;;;;;;4.36;100.00;100863.69;10414676;28;20021;-63
2023/04/15 04:09:20;;;;;;;;;;;;;;;4.47;100.00;100866.81;10415167;28;19929;-64
2023/04/15 04:14:28;;;;;;;;;;;;;;;4.42;100.00;100879.06;10376045;28;19925;-63
2023/04/15 04:19:30;;;;;;;;;;;;;;;4.29;100.00;100885.50;10375053;28;19930;-63
2023/04/15 04:24:32;;;;;;;;;;;;;;;4.45;100.00;100888.47;10375568;28;19932;-64
2023/04/15 04:29:35;;;;;;;;;;;;;;;4.47;100.00;100891.88;10378651;28;19925;-64
2023/04/15 04:34:37;;;;;;;;;;;;;;;4.35;100.00;100910.38;10384479;28;19929;-64
2023/04/15 04:39:39;;;;;;;;;;;;;;;4.58;100.00;100910.53;10377782;28;19925;-63
2023/04/15 04:44:41;;;;;;;;;;;;;;;4.30;100.00;100913.09;10382251;28;19983;-63
2023/04/15 04:49:44;;;;;;;;;;;;;;;4.34;100.00;100929.41;10406228;28;19968;-64
2023/04/15 04:54:46;;;;;;;;;;;;;;;4.22;100.00;100921.13;10380975;28;19926;-64
2023/04/15 04:59:48;;;;;;;;;;;;;;;4.16;100.00;100936.84;10382994;28;19933;-64
2023/04/15 05:04:53;;;;;;;;;;;;;;;4.30;100.00;100939.03;10392077;28;19925;-64
2023/04/15 05:09:55;;;;;;;;;;;;;;;4.54;100.00;100946.97;10410638;28;19933;-64
2023/04/15 05:14:57;;;;;;;;;;;;;;;4.30;100.00;100953.75;10382244;28;19926;-63
2023/04/15 05:20:00;;;;;;;;;;;;;;;4.71;100.00;100965.50;10394658;28;20346;-63
2023/04/15 05:25:03;;;;;;;;;;;;;;;4.77;100.00;100970.47;10409493;28;19926;-64
2023/04/15 05:30:06;;;;;;;;;;;;;;;4.87;100.00;100975.41;10381967;28;19972;-64
2023/04/15 05:35:08;;;;;;;;;;;;;;;4.94;100.00;100984.69;10379975;28;20324;-64
2023/04/15 05:40:10;;;;;;;;;;;;;;;5.28;100.00;100981.00;10382393;28;19933;-64
2023/04/15 05:45:13;;;;;;;;;;;;;;;5.29;100.00;100995.69;10392380;28;20343;-64
2023/04/15 05:50:15;;;;;;;;;;;;;;;5.47;100.00;100999.47;10421981;28;19955;-64
2023/04/15 05:55:17;;;;;;;;;;;;;;;5.66;100.00;101003.13;10418564;28;20343;-64
2023/04/15 06:00:20;;;;;;;;;;;;;;;6.28;100.00;101014.03;10421613;28;19925;-64
2023/04/15 06:05:23;;;;;;;;;;;;;;;6.41;100.00;101011.84;10418031;28;19925;-64
2023/04/15 06:10:25;;;;;;;;;;;;;;;6.62;100.00;101016.25;10421277;28;19925;-64
2023/04/15 06:15:27;;;;;;;;;;;;;;;6.84;100.00;101026.69;10392910;28;19925;-64
2023/04/15 06:20:29;;;;;;;;;;;;;;;7.10;100.00;101037.00;10379950;28;19929;-64
2023/04/15 06:25:31;;;;;;;;;;;;;;;7.08;100.00;101044.88;10395026;28;19936;-64
2023/04/15 06:30:34;;;;;;;;;;;;;;;7.08;100.00;101057.91;10420569;28;19932;-64
2023/04/15 06:35:38;;;;;;;;;;;;;;;7.59;100.00;101063.69;10385439;28;19926;-64
2023/04/15 06:40:40;;;;;;;;;;;;;;;7.53;100.00;101069.16;10378679;28;19925;-64
2023/04/15 06:45:42;;;;;;;;;;;;;;;7.69;100.00;101075.44;10394010;28;19925;-64
2023/04/15 06:50:44;;;;;;;;;;;;;;;7.89;100.00;101094.66;10419059;28;20067;-64
2023/04/15 06:55:46;;;;;;;;;;;;;;;7.94;98.77;101097.91;10415973;28;20376;-63
2023/04/15 07:00:49;;;;;;;;;;;;;;;7.95;100.00;101110.00;10419251;28;19980;-62
2023/04/15 07:05:51;;;;;;;;;;;;;;;8.00;98.99;101118.50;10400510;28;19935;-62
2023/04/15 07:10:53;;;;;;;;;;;;;;;7.94;100.00;101116.16;10377398;28;20335;-62
2023/04/15 07:15:56;;;;;;;;;;;;;;;8.24;98.58;101127.06;10397013;28;19932;-62
2023/04/15 07:20:58;;;;;;;;;;;;;;;8.31;98.44;101131.09;10405213;28;19924;-62
2023/04/15 07:26:01;;;;;;;;;;;;;;;8.49;100.00;101146.91;10376851;28;19929;-62
2023/04/15 07:31:03;;;;;;;;;;;;;;;8.75;99.26;101153.63;10399180;28;19979;-61
2023/04/15 07:36:05;;;;;;;;;;;;;;;8.60;99.27;101151.69;10417834;28;19926;-62
2023/04/15 07:41:08;;;;;;;;;;;;;;;8.93;96.52;101157.19;10416493;28;19925;-62
2023/04/15 07:46:10;;;;;;;;;;;;;;;9.22;94.16;101166.28;10416913;28;19925;-62
2023/04/15 07:51:12;;;;;;;;;;;;;;;9.49;95.82;101156.31;10416751;28;20372;-62
2023/04/15 07:56:15;;;;;;;;;;;;;;;9.63;91.55;101158.31;10411988;28;20003;-62
2023/04/15 08:01:17;;;;;;;;;;;;;;;9.75;89.50;101167.34;10404812;28;19925;-62
2023/04/15 08:06:19;;;;;;;;;;;;;;;10.25;86.88;101173.59;10415725;28;19929;-62
2023/04/15 08:11:22;;;;;;;;;;;;;;;10.10;87.84;101175.19;10416739;28;19929;-62
2023/04/15 08:16:26;;;;;;;;;;;;;;;10.34;84.47;101178.41;10415389;28;19967;-62
2023/04/15 08:21:29;;;;;;;;;;;;;;;10.24;83.99;101192.88;10416494;28;19979;-62
2023/04/15 08:26:32;;;;;;;;;;;;;;;10.83;84.57;101188.16;10410604;28;19929;-62
2023/04/15 08:31:34;;;;;;;;;;;;;;;11.67;81.77;101190.63;10376832;28;19925;-62
2023/04/15 08:36:36;;;;;;;;;;;;;;;11.09;81.73;101194.63;10386014;28;19932;-61
2023/04/15 08:41:39;;;;;;;;;;;;;;;11.41;79.99;101205.16;10389156;28;19932;-62
2023/04/15 08:46:42;;;;;;;;;;;;;;;11.52;78.25;101204.56;10375183;28;19929;-62
2023/04/15 08:51:44;;;;;;;;;;;;;;;11.33;78.68;101210.81;10391240;28;19933;-62
2023/04/15 08:56:47;;;;;;;;;;;;;;;12.02;77.36;101210.56;10373832;28;19976;-62
2023/04/15 09:01:50;;;;;;;;;;;;;;;11.68;74.79;101222.94;10387319;28;19926;-62
2023/04/15 09:06:52;;;;;;;;;;;;;;;11.80;75.08;101238.00;10376826;28;20423;-62
2023/04/15 09:11:54;;;;;;;;;;;;;;;12.01;74.61;101225.47;10372809;28;19925;-62
2023/04/15 09:17:00;;;;;;;;;;;;;;;11.93;73.55;101237.34;10375877;28;19976;-62
2023/04/15 09:22:02;;;;;;;;;;;;;;;12.86;72.71;101249.47;10373797;28;20327;-62
2023/04/15 09:27:05;;;;;;;;;;;;;;;12.23;71.18;101246.09;10373264;28;19926;-62
2023/04/15 09:32:11;;;;;;;;;;;;;;;12.42;70.85;101260.78;10356977;28;20044;-62
2023/04/15 09:37:17;;;;;;;;;;;;;;;12.99;71.11;101255.69;10373527;28;19926;-62
2023/04/15 09:42:32;;;;;;;;;;;;;;;13.89;69.18;101264.19;10380854;28;19941;-62
2023/04/15 09:47:35;;;;;;;;;;;;;;;13.52;69.89;101271.75;10380666;28;19979;-62
2023/04/15 09:52:41;;;;;;;;;;;;;;;13.66;67.97;101273.53;10380484;28;19949;-62
2023/04/15 09:57:45;;;;;;;;;;;;;;;13.53;68.15;101281.34;10380190;28;19932;-62
2023/04/15 10:02:48;;;;;;;;;;;;;;;12.83;67.72;101283.81;10380073;28;19925;-62
2023/04/15 10:07:50;;;;;;;;;;;;;;;14.09;67.18;101278.69;10378731;28;19932;-62
2023/04/15 10:12:53;;;;;;;;;;;;;;;14.32;66.28;101265.81;10380815;28;20380;-65
2023/04/15 10:17:55;;;;;;;;;;;;;;;15.58;64.94;101274.84;10378380;28;20367;-66
2023/04/15 10:22:57;;;;;;;;;;;;;;;16.36;62.37;101284.22;10378834;28;19971;-66
2023/04/15 10:27:59;;;;;;;;;;;;;;;16.57;62.00;101281.78;10382194;28;19988;-66
2023/04/15 10:33:02;;;;;;;;;;;;;;;15.10;62.96;101290.53;10381572;28;19929;-65
2023/04/15 10:38:23;;;;;;;;;;;;;;;16.13;61.40;101299.13;10396848;28;19925;-66
2023/04/15 10:43:26;;;;;;;;;;;;;;;16.52;61.22;101303.28;10417972;28;19932;-66
2023/04/15 10:48:28;;;;;;;;;;;;;;;16.93;58.63;101298.50;10417492;28;20272;-62
2023/04/15 10:53:30;;;;;;;;;;;;;;;16.19;59.56;101309.25;10383050;28;20180;-62
2023/04/15 10:58:42;;;;;;;;;;;;;;;16.35;59.99;101314.25;10384888;28;19926;-62
2023/04/15 11:03:45;;;;;;;;;;;;;;;16.01;60.17;101319.34;10377209;28;19926;-63
2023/04/15 11:08:58;;;;;;;;;;;;;;;16.14;59.57;101325.44;10392218;28;19926;-62
2023/04/15 11:14:01;;;;;;;;;;;;;;;17.12;59.52;101321.75;10413036;28;19925;-63
2023/04/15 11:19:03;;;;;;;;;;;;;;;16.75;56.97;101321.03;10405648;28;19925;-62
2023/04/15 11:24:05;;;;;;;;;;;;;;;17.60;54.20;101325.97;10395405;28;19999;-63
2023/04/15 11:29:08;;;;;;;;;;;;;;;17.37;56.16;101338.38;10376732;28;19925;-63
2023/04/15 11:34:10;;;;;;;;;;;;;;;19.63;51.66;101326.94;10407576;28;19925;-63
2023/04/15 11:39:12;;;;;;;;;;;;;;;17.88;52.75;101332.59;10417786;28;19982;-62
2023/04/15 11:44:15;;;;;;;;;;;;;;;17.39;53.85;101336.44;10417105;28;20426;-62
2023/04/15 11:49:27;;;;;;;;;;;;;;;15.42;57.14;101339.28;10414337;28;19925;-62
2023/04/15 11:54:29;;;;;;;;;;;;;;;18.21;53.82;101341.47;10392845;28;19925;-64
2023/04/15 11:59:41;;;;;;;;;;;;;;;17.04;54.43;101330.25;10376067;28;19929;-64
2023/04/15 12:04:46;;;;;;;;;;;;;;;16.92;53.53;101344.41;10375183;28;19952;-64
2023/04/15 12:09:53;;;;;;;;;;;;;;;18.10;52.42;101355.56;10376488;28;19925;-64
2023/04/15 12:14:56;;;;;;;;;;;;;;;18.67;51.20;101342.13;10375494;28;19933;-65
2023/04/15 12:19:58;;;;;;;;;;;;;;;16.81;53.17;101361.06;10377694;28;20047;-64
2023/04/15 12:25:01;;;;;;;;;;;;;;;18.36;49.96;101361.41;10375412;28;20376;-64
2023/04/15 12:30:04;;;;;;;;;;;;;;;18.43;51.08;101376.81;10408891;22;19924;-64
2023/04/15 12:35:06;;;;;;;;;;;;;;;20.03;48.61;101358.00;10439266;28;20428;-64
2023/04/15 12:40:09;;;;;;;;;;;;;;;17.64;51.65;101383.03;10456734;28;20322;-64
2023/04/15 12:45:11;;;;;;;;;;;;;;;16.56;53.29;101390.25;10456578;28;19924;-66
2023/04/15 12:50:13;;;;;;;;;;;;;;;18.12;52.46;101397.84;10433543;28;20352;-66
2023/04/15 12:55:16;;;;;;;;;;;;;;;18.66;50.11;101393.47;10415205;28;20269;-66
2023/04/15 13:00:18;;;;;;;;;;;;;;;18.71;49.64;101405.41;10415007;28;19925;-67
2023/04/15 13:05:20;;;;;;;;;;;;;;;17.66;53.25;101409.41;10426017;28;19935;-66
2023/04/15 13:10:23;;;;;;;;;;;;;;;19.00;49.53;101409.31;10456749;28;19925;-66
2023/04/15 13:15:25;;;;;;;;;;;;;;;17.25;51.74;101401.03;10459905;28;19929;-66
2023/04/15 13:20:27;;;;;;;;;;;;;;;16.86;54.05;101406.56;10463074;28;19925;-66
2023/04/15 13:25:30;;;;;;;;;;;;;;;15.41;57.16;101419.38;10464359;28;19936;-66
2023/04/15 13:30:32;;;;;;;;;;;;;;;15.76;58.17;101424.06;10462728;28;20390;-66
2023/04/15 13:35:34;;;;;;;;;;;;;;;16.41;54.78;101426.56;10462241;28;20376;-66
2023/04/15 13:40:36;;;;;;;;;;;;;;;16.59;55.76;101430.53;10463395;28;19929;-66
2023/04/15 13:45:39;;;;;;;;;;;;;;;15.27;56.40;101429.19;10463549;28;19975;-65
2023/04/15 13:50:44;;;;;;;;;;;;;;;16.04;55.05;101435.34;10445088;28;19925;-66
2023/04/15 13:55:46;;;;;;;;;;;;;;;14.56;58.55;101452.19;10463717;28;19979;-65
2023/04/15 14:00:48;;;;;;;;;;;;;;;15.84;56.46;101449.94;10462896;28;19925;-66
2023/04/15 14:05:54;;;;;;;;;;;;;;;15.90;57.17;101461.84;10463075;28;19925;-66
2023/04/15 14:10:56;;;;;;;;;;;;;;;15.93;57.36;101469.56;10462433;28;19925;-66
2023/04/15 14:15:59;;;;;;;;;;;;;;;16.93;57.10;101469.56;10462343;28;19929;-66
2023/04/15 14:21:02;;;;;;;;;;;;;;;15.20;57.77;101486.78;10462117;28;19978;-66
2023/04/15 14:26:05;;;;;;;;;;;;;;;14.95;59.87;101495.44;10460791;28;20392;-66
2023/04/15 14:31:07;;;;;;;;;;;;;;;13.84;62.51;101502.31;10461047;28;19931;-66
2023/04/15 14:36:09;;;;;;;;;;;;;;;13.55;63.05;101518.03;10459223;28;19941;-65
2023/04/15 14:41:11;;;;;;;;;;;;;;;12.95;64.53;101524.88;10460630;28;19924;-65
2023/04/15 14:46:14;;;;;;;;;;;;;;;12.69;64.45;101541.22;10459586;28;20314;-65
2023/04/15 14:51:16;;;;;;;;;;;;;;;13.07;64.56;101543.53;10461057;28;19974;-65
2023/04/15 14:56:18;;;;;;;;;;;;;;;12.78;65.46;101552.09;10459905;28;19986;-65
2023/04/15 15:01:20;;;;;;;;;;;;;;;12.03;67.84;101564.78;10461087;28;19929;-65
2023/04/15 15:06:23;;;;;;;;;;;;;;;12.53;68.08;101563.06;10448062;28;19963;-65
2023/04/15 15:11:25;;;;;;;;;;;;;;;12.04;69.06;101569.13;10418960;28;19925;-65
2023/04/15 15:16:28;;;;;;;;;;;;;;;12.55;68.54;101581.38;10441429;28;20342;-66
2023/04/15 15:21:30;;;;;;;;;;;;;;;11.84;69.60;101587.63;10454849;28;19951;-65
2023/04/15 15:26:32;;;;;;;;;;;;;;;12.49;68.24;101587.81;10445435;28;19925;-66
2023/04/15 15:31:35;;;;;;;;;;;;;;;12.26;68.68;101599.53;10439275;28;20375;-67
2023/04/15 15:36:37;;;;;;;;;;;;;;;12.58;68.59;101599.63;10431189;28;19924;-67
2023/04/15 15:41:39;;;;;;;;;;;;;;;11.79;70.15;101615.88;10442578;28;20354;-63
2023/04/15 15:46:43;;;;;;;;;;;;;;;11.58;71.46;101612.50;10457549;28;20301;-63
2023/04/15 15:51:46;;;;;;;;;;;;;;;11.86;70.65;101618.09;10442955;28;19925;-63
2023/04/15 15:56:48;;;;;;;;;;;;;;;12.40;68.79;101615.38;10436625;28;19924;-63
2023/04/15 16:01:51;;;;;;;;;;;;;;;12.30;69.74;101619.41;10456535;28;20364;-63
2023/04/15 16:06:53;;;;;;;;;;;;;;;12.35;69.65;101629.69;10446817;28;20406;-63
2023/04/15 16:11:56;;;;;;;;;;;;;;;11.92;71.19;101637.97;10456860;28;20368;-63
2023/04/15 16:16:58;;;;;;;;;;;;;;;11.33;72.15;101647.75;10443776;28;19925;-63
2023/04/15 16:22:00;;;;;;;;;;;;;;;11.37;72.70;101659.81;10449409;28;20449;-64
2023/04/15 16:27:02;;;;;;;;;;;;;;;11.37;72.26;101665.06;10442341;28;19970;-63
2023/04/15 16:32:05;;;;;;;;;;;;;;;11.14;73.43;101672.19;10443554;28;20380;-63
2023/04/15 16:37:07;;;;;;;;;;;;;;;11.09;74.36;101670.72;10440353;28;19932;-63
2023/04/15 16:42:09;;;;;;;;;;;;;;;11.02;75.14;101688.50;10419111;28;20002;-63
2023/04/15 16:47:11;;;;;;;;;;;;;;;10.96;74.99;101699.25;10428070;28;19937;-63
2023/04/15 16:52:14;;;;;;;;;;;;;;;10.46;77.08;101699.69;10426406;28;20050;-63
2023/04/15 16:57:16;;;;;;;;;;;;;;;10.82;76.67;101710.34;10452915;28;19925;-63
2023/04/15 17:02:18;;;;;;;;;;;;;;;10.66;76.80;101712.78;10439544;28;19929;-63
2023/04/15 17:07:21;;;;;;;;;;;;;;;10.37;78.66;101721.84;10462813;28;20361;-63
2023/04/15 17:12:23;;;;;;;;;;;;;;;10.21;78.74;101729.47;10433273;28;19928;-63
2023/04/15 17:17:25;;;;;;;;;;;;;;;10.34;79.54;101724.59;10455961;28;19925;-63
2023/04/15 17:22:27;;;;;;;;;;;;;;;10.13;80.37;101721.94;10424136;28;20400;-63
2023/04/15 17:27:30;;;;;;;;;;;;;;;10.40;80.10;101734.81;10437698;28;19928;-63
2023/04/15 17:32:33;;;;;;;;;;;;;;;10.31;80.38;101741.28;10432947;28;20497;-63
2023/04/15 17:37:35;;;;;;;;;;;;;;;10.33;80.07;101744.69;10449370;28;19932;-63
2023/04/15 17:42:38;;;;;;;;;;;;;;;10.13;81.39;101737.63;10447605;28;19929;-63
2023/04/15 17:47:40;;;;;;;;;;;;;;;9.77;83.77;101746.03;10449814;28;19932;-63
2023/04/15 17:52:42;;;;;;;;;;;;;;;9.99;83.77;101758.28;10453404;28;19925;-63
2023/04/15 17:57:45;;;;;;;;;;;;;;;9.69;84.71;101765.56;10452884;28;20368;-63
2023/04/15 18:02:47;;;;;;;;;;;;;;;9.74;85.83;101764.47;10429229;28;20334;-63
2023/04/15 18:07:51;;;;;;;;;;;;;;;9.67;86.24;101782.13;10451628;28;19929;-63
2023/04/15 18:12:53;;;;;;;;;;;;;;;9.58;86.88;101790.34;10441180;28;19925;-63
2023/04/15 18:17:55;;;;;;;;;;;;;;;9.90;85.35;101792.63;10459617;28;19967;-63
2023/04/15 18:22:58;;;;;;;;;;;;;;;9.67;86.14;101810.06;10421027;28;19925;-63
2023/04/15 18:28:00;;;;;;;;;;;;;;;9.38;88.00;101809.38;10423076;28;19955;-63
2023/04/15 18:33:02;;;;;;;;;;;;;;;9.38;88.30;101819.84;10454763;28;19931;-63
2023/04/15 18:38:04;;;;;;;;;;;;;;;9.05;91.97;101829.72;10461498;28;20431;-63
2023/04/15 18:43:08;;;;;;;;;;;;;;;8.85;94.37;101843.44;10459805;28;19971;-63
2023/04/15 18:48:10;;;;;;;;;;;;;;;8.72;98.59;101845.59;10456303;28;20281;-63
2023/04/15 18:53:12;;;;;;;;;;;;;;;9.12;96.92;101846.88;10419788;28;19932;-64
2023/04/15 18:58:15;;;;;;;;;;;;;;;8.98;95.54;101869.97;10419611;28;19929;-67
2023/04/15 19:03:17;;;;;;;;;;;;;;;8.82;97.69;101865.28;10422483;28;19929;-67
2023/04/15 19:08:19;;;;;;;;;;;;;;;9.08;97.24;101879.25;10421589;28;19975;-67
2023/04/15 19:13:22;;;;;;;;;;;;;;;8.95;95.82;101884.00;10460082;28;20272;-67
2023/04/15 19:18:25;;;;;;;;;;;;;;;9.01;94.55;101883.81;10457725;28;19928;-67
2023/04/15 19:23:27;;;;;;;;;;;;;;;9.13;94.41;101882.56;10458523;28;19924;-67
2023/04/15 19:28:29;;;;;;;;;;;;;;;8.84;95.86;101888.72;10408500;28;19925;-67
2023/04/15 19:33:31;;;;;;;;;;;;;;;8.77;98.55;101901.13;10399478;28;19926;-67
2023/04/15 19:38:34;;;;;;;;;;;;;;;9.06;99.70;101905.41;10421455;28;19925;-67
2023/04/15 19:43:37;;;;;;;;;;;;;;;8.68;98.63;101904.91;10417274;28;19972;-67
2023/04/15 19:48:39;;;;;;;;;;;;;;;8.53;100.00;101914.06;10417807;28;19925;-67
2023/04/15 19:53:41;;;;;;;;;;;;;;;9.20;97.24;101915.41;10419852;28;20402;-66
2023/04/15 19:58:45;;;;;;;;;;;;;;;9.07;95.67;101921.94;10416697;28;19932;-67
2023/04/15 20:03:47;;;;;;;;;;;;;;;8.88;96.36;101922.53;10419900;28;19929;-67
2023/04/15 20:08:50;;;;;;;;;;;;;;;9.02;98.12;101919.47;10416984;28;19936;-67
2023/04/15 20:13:53;;;;;;;;;;;;;;;8.78;99.22;101908.06;10416828;28;19925;-67
2023/04/15 20:18:56;;;;;;;;;;;;;;;8.80;99.80;101908.88;10450681;28;19928;-66
2023/04/15 20:23:59;;;;;;;;;;;;;;;8.65;100.00;101917.19;10455781;28;19924;-66
2023/04/15 20:29:01;;;;;;;;;;;;;;;8.93;100.00;101910.19;10448669;28;19929;-66
2023/04/15 20:34:03;;;;;;;;;;;;;;;9.13;97.01;101924.34;10415544;28;20391;-66
2023/04/15 20:39:06;;;;;;;;;;;;;;;8.95;99.09;101924.97;10442273;28;19925;-66
2023/04/15 20:44:08;;;;;;;;;;;;;;;8.68;100.00;101917.94;10455671;28;19924;-66
2023/04/15 20:49:10;;;;;;;;;;;;;;;8.59;100.00;101931.31;10455428;28;19929;-66
2023/04/15 20:54:13;;;;;;;;;;;;;;;8.90;100.00;101931.16;10423960;28;19971;-66
2023/04/15 20:59:15;;;;;;;;;;;;;;;8.88;100.00;101932.13;10435942;28;19925;-67
2023/04/15 21:04:18;;;;;;;;;;;;;;;8.85;100.00;101932.22;10457088;28;19929;-66
2023/04/15 21:09:20;;;;;;;;;;;;;;;8.89;100.00;101937.31;10427961;28;19943;-67
2023/04/15 21:14:22;;;;;;;;;;;;;;;8.50;100.00;101934.19;10438474;28;19925;-67
2023/04/15 21:19:24;;;;;;;;;;;;;;;8.83;100.00;101939.28;10456517;28;19925;-67
2023/04/15 21:24:27;;;;;;;;;;;;;;;8.86;100.00;101944.38;10455964;28;19929;-66
2023/04/15 21:29:29;;;;;;;;;;;;;;;8.90;100.00;101954.69;10455722;28;19924;-64
2023/04/15 21:34:31;;;;;;;;;;;;;;;8.59;100.00;101952.19;10455376;28;20413;-63
2023/04/15 21:39:34;;;;;;;;;;;;;;;8.99;100.00;101963.13;10463304;28;20268;-64
2023/04/15 21:44:36;;;;;;;;;;;;;;;8.63;100.00;101963.38;10463837;28;19971;-64
2023/04/15 21:49:38;;;;;;;;;;;;;;;8.63;100.00;101973.84;10462289;28;20330;-64
2023/04/15 21:54:40;;;;;;;;;;;;;;;8.53;100.00;101978.47;10463839;28;19931;-64
2023/04/15 21:59:43;;;;;;;;;;;;;;;9.00;100.00;101973.53;10462531;28;19972;-64
2023/04/15 22:04:45;;;;;;;;;;;;;;;8.72;100.00;101984.84;10439294;28;19979;-64
2023/04/15 22:09:47;;;;;;;;;;;;;;;9.01;100.00;101988.31;10420934;28;20330;-64
2023/04/15 22:14:49;;;;;;;;;;;;;;;8.77;100.00;101989.91;10421859;28;19925;-64
2023/04/15 22:19:52;;;;;;;;;;;;;;;8.84;100.00;101996.69;10446754;28;19929;-64
2023/04/15 22:24:54;;;;;;;;;;;;;;;8.72;100.00;101997.91;10461610;28;19947;-64
2023/04/15 22:29:56;;;;;;;;;;;;;;;9.10;100.00;101995.00;10460512;28;20327;-64
2023/04/15 22:34:59;;;;;;;;;;;;;;;9.14;100.00;101996.59;10461716;28;20303;-64
2023/04/15 22:40:02;;;;;;;;;;;;;;;8.97;100.00;101998.91;10461523;28;19959;-64
2023/04/15 22:45:04;;;;;;;;;;;;;;;8.85;100.00;102007.97;10459375;28;19924;-63
2023/04/15 22:50:07;;;;;;;;;;;;;;;8.81;100.00;102002.00;10461148;28;20415;-64
2023/04/15 22:55:09;;;;;;;;;;;;;;;8.80;100.00;102013.31;10459324;28;20428;-63
2023/04/15 23:00:11;;;;;;;;;;;;;;;8.84;100.00;102011.47;10459153;28;19935;-64
2023/04/15 23:05:13;;;;;;;;;;;;;;;8.93;100.00;102022.50;10460015;28;20448;-64
2023/04/15 23:10:16;;;;;;;;;;;;;;;8.97;100.00;102020.63;10459179;28;20265;-64
2023/04/15 23:15:18;;;;;;;;;;;;;;;8.78;100.00;102022.13;10418625;28;19925;-64
2023/04/15 23:20:20;;;;;;;;;;;;;;;8.96;100.00;102031.13;10419414;28;19929;-64
2023/04/15 23:25:23;;;;;;;;;;;;;;;8.92;100.00;102028.59;10418724;28;19932;-65
2023/04/15 23:30:25;;;;;;;;;;;;;;;9.10;100.00;102035.03;10433604;28;19971;-65
2023/04/15 23:35:27;;;;;;;;;;;;;;;8.93;100.00;102032.09;10417843;28;19932;-66
2023/04/15 23:40:30;;;;;;;;;;;;;;;9.08;100.00;102038.59;10434180;28;20326;-65
2023/04/15 23:45:32;;;;;;;;;;;;;;;9.01;100.00;102045.78;10459320;28;19928;-65
2023/04/15 23:50:34;;;;;;;;;;;;;;;8.85;100.00;102039.31;10457051;28;20441;-65
2023/04/15 23:55:36;;;;;;;;;;;;;;;8.65;100.00;102047.72;10426150;28;19970;-65
